| time (UTC) | temp F | wind direction | speed knots | gust knots | rain 1hr in | rain 24hr in | rain mn in | humidity % | barometer mb |
| 20260502194507 | 63 | 17 | 8.7 | 21.7 | 0.00 | 0.00 | 0.00 | 36 | 1022.3 |
| 20260502194007 | 63 | 346 | 13.0 | 21.7 | 0.00 | 0.00 | 0.00 | 34 | 1022.3 |
| 20260502192507 | 62 | 24 | 10.4 | 20.0 | 0.00 | 0.00 | 0.00 | 34 | 1022.3 |
| 20260502192007 | 62 | 6 | 8.7 | 20.0 | 0.00 | 0.00 | 0.00 | 35 | 1022.4 |
| 20260502191007 | 62 | 34 | 10.4 | 22.6 | 0.00 | 0.00 | 0.00 | 35 | 1022.4 |
| 20260502190507 | 63 | 11 | 11.3 | 22.6 | 0.00 | 0.00 | 0.00 | 35 | 1022.4 |
| 20260502190007 | 62 | 14 | 13.9 | 22.6 | 0.00 | 0.00 | 0.00 | 37 | 1022.5 |
| 20260502185007 | 61 | 27 | 13.9 | 22.6 | 0.00 | 0.00 | 0.00 | 36 | 1022.6 |
| 20260502184507 | 62 | 25 | 15.6 | 22.6 | 0.00 | 0.00 | 0.00 | 33 | 1022.6 |
| 20260502184007 | 61 | 44 | 12.2 | 22.6 | 0.00 | 0.00 | 0.00 | 37 | 1022.6 |
| 20260502183008 | 62 | 20 | 13.9 | 21.7 | 0.00 | 0.00 | 0.00 | 36 | 1022.8 |
| 20260502182507 | 61 | 15 | 12.2 | 21.7 | 0.00 | 0.00 | 0.00 | 37 | 1022.8 |
| 20260502182007 | 61 | 354 | 14.8 | 21.7 | 0.00 | 0.00 | 0.00 | 40 | 1022.9 |
| 20260502181507 | 61 | 26 | 9.6 | 19.1 | 0.00 | 0.00 | 0.00 | 39 | 1022.8 |
| 20260502181007 | 60 | 21 | 8.7 | 21.7 | 0.00 | 0.00 | 0.00 | 38 | 1022.8 |
| 20260502180507 | 61 | 17 | 12.2 | 24.3 | 0.00 | 0.00 | 0.00 | 41 | 1022.8 |
| 20260502170506 | 60 | 27 | 12.2 | 21.7 | 0.00 | 0.00 | 0.00 | 44 | 1022.8 |
| 20260502164007 | 58 | 34 | 11.3 | 20.9 | 0.00 | 0.00 | 0.00 | 48 | 1022.6 |
| 20260502163006 | 57 | 11 | 13.0 | 22.6 | 0.00 | 0.00 | 0.00 | 51 | 1022.6 |
| 20260502162507 | 57 | 22 | 13.0 | 22.6 | 0.00 | 0.00 | 0.00 | 52 | 1022.6 |
| 20260502161506 | 57 | 25 | 13.9 | 22.6 | 0.00 | 0.00 | 0.00 | 51 | 1022.5 |
| 20260502161007 | 56 | 10 | 13.9 | 22.6 | 0.00 | 0.00 | 0.00 | 53 | 1022.6 |
| 20260502160507 | 57 | 358 | 15.6 | 22.6 | 0.00 | 0.00 | 0.00 | 54 | 1022.5 |
| 20260502152007 | 54 | 354 | 13.9 | 21.7 | 0.00 | 0.00 | 0.00 | 57 | 1022.3 |
| 20260502151507 | 54 | 18 | 9.6 | 19.1 | 0.00 | 0.00 | 0.00 | 57 | 1022.3 |
| 20260502151006 | 54 | 0 | 11.3 | 19.1 | 0.00 | 0.00 | 0.00 | 60 | 1022.3 |
| 20260502130506 | 44 | 347 | 11.3 | 15.6 | 0.00 | 0.00 | 0.00 | 75 | 1020.8 |
| 20260502123507 | 44 | 8 | 7.0 | 12.2 | 0.00 | 0.00 | 0.00 | 76 | 1020.4 |
| 20260502122506 | 43 | 357 | 7.8 | 14.8 | 0.00 | 0.00 | 0.00 | 76 | 1020.4 |
| 20260502121507 | 43 | 352 | 10.4 | 15.6 | 0.00 | 0.00 | 0.00 | 75 | 1020.3 |
| 20260502121007 | 43 | 342 | 10.4 | 13.9 | 0.00 | 0.00 | 0.00 | 75 | 1020.2 |
| 20260502120507 | 44 | 352 | 9.6 | 13.9 | 0.00 | 0.00 | 0.00 | 75 | 1020.1 |
| 20260502115506 | 44 | 3 | 8.7 | 18.2 | 0.00 | 0.00 | 0.00 | 75 | 1020.0 |
| 20260502115006 | 44 | 0 | 7.8 | 18.2 | 0.00 | 0.00 | 0.00 | 75 | 1020.0 |
| 20260502114506 | 44 | 357 | 10.4 | 17.4 | 0.00 | 0.00 | 0.00 | 74 | 1020.0 |
| 20260502114007 | 44 | 11 | 9.6 | 15.6 | 0.00 | 0.00 | 0.00 | 75 | 1019.9 |
| 20260502113007 | 45 | 0 | 10.4 | 18.2 | 0.00 | 0.00 | 0.00 | 74 | 1019.8 |
| 20260502112006 | 45 | 357 | 9.6 | 13.9 | 0.00 | 0.00 | 0.00 | 73 | 1019.6 |
| 20260502111507 | 45 | 346 | 9.6 | 13.9 | 0.00 | 0.00 | 0.00 | 74 | 1019.6 |
| 20260502111007 | 45 | 351 | 8.7 | 13.9 | 0.00 | 0.00 | 0.00 | 73 | 1019.6 |
| 20260502110507 | 45 | 348 | 8.7 | 13.9 | 0.00 | 0.00 | 0.00 | 72 | 1019.4 |
| 20260502110007 | 46 | 350 | 8.7 | 15.6 | 0.00 | 0.00 | 0.00 | 71 | 1019.4 |
| 20260502105006 | 46 | 354 | 10.4 | 15.6 | 0.00 | 0.00 | 0.00 | 70 | 1019.2 |
| 20260502104506 | 47 | 351 | 9.6 | 13.0 | 0.00 | 0.00 | 0.00 | 69 | 1019.2 |
| 20260502104006 | 47 | 336 | 6.1 | 13.0 | 0.00 | 0.00 | 0.00 | 69 | 1019.2 |
| 20260502103506 | 48 | 331 | 8.7 | 12.2 | 0.00 | 0.00 | 0.00 | 68 | 1019.0 |
| 20260502103007 | 48 | 344 | 8.7 | 13.9 | 0.00 | 0.00 | 0.00 | 68 | 1018.9 |
| 20260502102506 | 48 | 336 | 7.0 | 13.9 | 0.00 | 0.00 | 0.00 | 67 | 1018.8 |
| 20260502102007 | 48 | 349 | 8.7 | 13.9 | 0.00 | 0.00 | 0.00 | 67 | 1018.8 |
| 20260502101007 | 49 | 351 | 10.4 | 13.0 | 0.00 | 0.00 | 0.00 | 66 | 1018.7 |
| 20260502100507 | 49 | 354 | 7.0 | 11.3 | 0.00 | 0.00 | 0.00 | 66 | 1018.6 |
| 20260502091507 | 51 | 305 | 3.5 | 7.8 | 0.00 | 0.00 | 0.00 | 62 | 1018.5 |
| 20260502091007 | 51 | 277 | 3.5 | 8.7 | 0.00 | 0.00 | 0.00 | 60 | 1018.6 |
| 20260502090507 | 51 | 306 | 4.3 | 8.7 | 0.00 | 0.00 | 0.00 | 60 | 1018.5 |
| 20260502071507 | 54 | 328 | 4.3 | 10.4 | 0.00 | 0.00 | 0.00 | 47 | 1017.9 |
| 20260502071006 | 55 | 337 | 5.2 | 11.3 | 0.00 | 0.00 | 0.00 | 47 | 1018.0 |
| 20260502070506 | 55 | 330 | 6.1 | 11.3 | 0.00 | 0.00 | 0.00 | 47 | 1017.9 |
| 20260502065006 | 55 | 343 | 7.8 | 12.2 | 0.00 | 0.00 | 0.00 | 45 | 1017.7 |
| 20260502064507 | 55 | 344 | 7.8 | 12.2 | 0.00 | 0.00 | 0.00 | 46 | 1017.7 |
| 20260502064007 | 55 | 346 | 7.0 | 12.2 | 0.00 | 0.00 | 0.00 | 47 | 1017.7 |
| 20260502063506 | 54 | 343 | 6.1 | 10.4 | 0.00 | 0.00 | 0.00 | 48 | 1017.7 |
| 20260502063006 | 54 | 332 | 7.0 | 10.4 | 0.00 | 0.00 | 0.00 | 47 | 1017.7 |
| 20260502062506 | 54 | 319 | 3.5 | 8.7 | 0.00 | 0.00 | 0.00 | 47 | 1017.7 |
| 20260502062006 | 54 | 293 | 2.6 | 7.8 | 0.00 | 0.00 | 0.00 | 48 | 1017.6 |
| 20260502061507 | 54 | 260 | 4.3 | 8.7 | 0.00 | 0.00 | 0.00 | 47 | 1017.7 |
| 20260502061006 | 54 | 267 | 2.6 | 8.7 | 0.00 | 0.00 | 0.00 | 48 | 1017.7 |
| 20260502060506 | 54 | 244 | 4.3 | 11.3 | 0.00 | 0.00 | 0.00 | 48 | 1017.7 |
| 20260502060007 | 55 | 242 | 5.2 | 11.3 | 0.00 | 0.00 | 0.00 | 46 | 1017.6 |
| 20260502055506 | 55 | 247 | 7.8 | 10.4 | 0.00 | 0.00 | 0.00 | 46 | 1017.6 |
| 20260502055007 | 55 | 234 | 5.2 | 8.7 | 0.00 | 0.00 | 0.00 | 45 | 1017.6 |
| 20260502054506 | 55 | 233 | 4.3 | 7.8 | 0.00 | 0.00 | 0.00 | 45 | 1017.6 |
| 20260502054006 | 55 | 228 | 4.3 | 7.8 | 0.00 | 0.00 | 0.00 | 44 | 1017.6 |
| 20260502053506 | 55 | 234 | 3.5 | 7.8 | 0.00 | 0.00 | 0.00 | 44 | 1017.7 |
| 20260502053007 | 55 | 227 | 4.3 | 8.7 | 0.00 | 0.00 | 0.00 | 43 | 1017.7 |
| 20260502052507 | 56 | 231 | 5.2 | 8.7 | 0.00 | 0.00 | 0.00 | 42 | 1017.7 |
| 20260502052007 | 57 | 234 | 5.2 | 8.7 | 0.00 | 0.00 | 0.00 | 41 | 1017.8 |
| 20260502051507 | 57 | 240 | 6.1 | 10.4 | 0.00 | 0.00 | 0.00 | 40 | 1017.9 |
| 20260502051006 | 57 | 222 | 6.1 | 10.4 | 0.00 | 0.00 | 0.00 | 39 | 1017.8 |
| 20260502050506 | 57 | 224 | 5.2 | 10.4 | 0.00 | 0.00 | 0.00 | 39 | 1017.7 |
| 20260502050006 | 58 | 233 | 5.2 | 10.4 | 0.00 | 0.00 | 0.00 | 39 | 1017.7 |
| 20260502045507 | 58 | 232 | 5.2 | 10.4 | 0.00 | 0.00 | 0.00 | 37 | 1017.7 |
| 20260502045006 | 58 | 223 | 6.1 | 10.4 | 0.00 | 0.00 | 0.00 | 37 | 1017.7 |
| 20260502044506 | 58 | 211 | 5.2 | 10.4 | 0.00 | 0.00 | 0.00 | 37 | 1017.6 |
| 20260502044006 | 58 | 192 | 5.2 | 11.3 | 0.00 | 0.00 | 0.00 | 37 | 1017.6 |
| 20260502043506 | 58 | 215 | 5.2 | 11.3 | 0.00 | 0.00 | 0.00 | 36 | 1017.7 |
| 20260502043007 | 59 | 213 | 5.2 | 10.4 | 0.00 | 0.00 | 0.00 | 35 | 1017.8 |
| 20260502041506 | 60 | 214 | 4.3 | 10.4 | 0.00 | 0.00 | 0.00 | 32 | 1018.0 |
| 20260502041006 | 60 | 210 | 4.3 | 10.4 | 0.00 | 0.00 | 0.00 | 32 | 1018.2 |
| 20260502040006 | 60 | 191 | 4.3 | 7.0 | 0.00 | 0.00 | 0.00 | 31 | 1018.2 |
| 20260502035506 | 60 | 199 | 1.7 | 6.1 | 0.00 | 0.00 | 0.00 | 31 | 1018.2 |
| 20260502035006 | 60 | 184 | 2.6 | 6.1 | 0.00 | 0.00 | 0.00 | 31 | 1018.1 |
| 20260502034506 | 60 | 185 | 2.6 | 6.1 | 0.00 | 0.00 | 0.00 | 30 | 1018.1 |
| 20260502034006 | 61 | 188 | 3.5 | 7.0 | 0.00 | 0.00 | 0.00 | 30 | 1018.1 |
| 20260502033506 | 61 | 201 | 3.5 | 7.0 | 0.00 | 0.00 | 0.00 | 30 | 1018.1 |
| 20260502033006 | 61 | 200 | 2.6 | 10.4 | 0.00 | 0.00 | 0.00 | 30 | 1018.1 |
| 20260502032506 | 61 | 196 | 4.3 | 10.4 | 0.00 | 0.00 | 0.00 | 30 | 1018.1 |
| 20260502032007 | 60 | 191 | 4.3 | 10.4 | 0.00 | 0.00 | 0.00 | 30 | 1018.0 |
| 20260502031506 | 61 | 188 | 2.6 | 6.1 | 0.00 | 0.00 | 0.00 | 29 | 1018.1 |
| 20260502031007 | 61 | 198 | 2.6 | 5.2 | 0.00 | 0.00 | 0.00 | 29 | 1018.0 |
| 20260502030506 | 61 | 182 | 2.6 | 7.0 | 0.00 | 0.00 | 0.00 | 28 | 1018.0 |
| 20260502030006 | 62 | 169 | 2.6 | 7.0 | 0.00 | 0.00 | 0.00 | 28 | 1018.1 |
| 20260502025506 | 62 | 164 | 2.6 | 7.0 | 0.00 | 0.00 | 0.00 | 28 | 1018.1 |
| 20260502025006 | 61 | 163 | 3.5 | 6.1 | 0.00 | 0.00 | 0.00 | 27 | 1018.2 |
| 20260502024007 | 61 | 155 | 2.6 | 5.2 | 0.00 | 0.00 | 0.00 | 28 | 1018.3 |
| 20260502023506 | 61 | 168 | 1.7 | 5.2 | 0.00 | 0.00 | 0.00 | 28 | 1018.4 |
| 20260502022006 | 62 | 163 | 1.7 | 6.1 | 0.00 | 0.00 | 0.00 | 27 | 1018.5 |
| 20260502021006 | 62 | 160 | 2.6 | 5.2 | 0.00 | 0.00 | 0.00 | 26 | 1018.6 |
| 20260502020007 | 62 | 154 | 2.6 | 4.3 | 0.00 | 0.00 | 0.00 | 27 | 1018.8 |
| 20260502015506 | 63 | 176 | 0.9 | 2.6 | 0.00 | 0.00 | 0.00 | 26 | 1018.9 |
| 20260502015006 | 62 | 169 | 0.9 | 2.6 | 0.00 | 0.00 | 0.00 | 26 | 1019.0 |
| 20260502014506 | 63 | 169 | 0.0 | 2.6 | 0.00 | 0.00 | 0.00 | 26 | 1019.1 |
| 20260502014006 | 64 | 194 | 0.9 | 2.6 | 0.00 | 0.00 | 0.00 | 24 | 1019.1 |
| 20260502013506 | 64 | 221 | 0.9 | 2.6 | 0.00 | 0.00 | 0.00 | 25 | 1019.1 |
| 20260502013006 | 64 | 221 | 0.9 | 2.6 | 0.00 | 0.00 | 0.00 | 25 | 1019.2 |
| 20260502012506 | 65 | 199 | 0.9 | 2.6 | 0.00 | 0.00 | 0.00 | 24 | 1019.3 |
| 20260502012006 | 66 | 217 | 1.7 | 2.6 | 0.00 | 0.00 | 0.00 | 23 | 1019.4 |
| 20260502011507 | 67 | 223 | 1.7 | 4.3 | 0.00 | 0.00 | 0.00 | 23 | 1019.4 |
| 20260502011006 | 67 | 245 | 2.6 | 4.3 | 0.00 | 0.00 | 0.00 | 22 | 1019.5 |
| 20260502010506 | 67 | 243 | 2.6 | 7.0 | 0.00 | 0.00 | 0.00 | 21 | 1019.5 |
| 20260502010007 | 67 | 233 | 2.6 | 7.0 | 0.00 | 0.00 | 0.00 | 24 | 1019.5 |
| 20260502005506 | 67 | 240 | 3.5 | 7.0 | 0.00 | 0.00 | 0.00 | 21 | 1019.6 |
| 20260502005006 | 68 | 249 | 2.6 | 7.0 | 0.00 | 0.00 | 0.00 | 20 | 1019.6 |
| 20260502004507 | 68 | 255 | 3.5 | 8.7 | 0.00 | 0.00 | 0.00 | 20 | 1019.7 |
| 20260502004006 | 68 | 254 | 3.5 | 10.4 | 0.00 | 0.00 | 0.00 | 20 | 1019.7 |
| 20260502003506 | 68 | 251 | 5.2 | 15.6 | 0.00 | 0.00 | 0.00 | 19 | 1019.7 |
| 20260502003007 | 69 | 251 | 7.8 | 15.6 | 0.00 | 0.00 | 0.00 | 19 | 1019.8 |
| 20260502002506 | 69 | 242 | 5.2 | 10.4 | 0.00 | 0.00 | 0.00 | 19 | 1019.8 |
| 20260502002006 | 69 | 258 | 7.0 | 11.3 | 0.00 | 0.00 | 0.00 | 19 | 1019.8 |
| 20260502001506 | 69 | 250 | 7.8 | 11.3 | 0.00 | 0.00 | 0.00 | 18 | 1019.7 |
| 20260502000506 | 70 | 234 | 7.8 | 13.9 | 0.00 | 0.00 | 0.00 | 19 | 1019.7 |
| 20260502000006 | 70 | 248 | 7.8 | 11.3 | 0.00 | 0.00 | 0.00 | 18 | 1019.8 |
| 20260501235006 | 70 | 259 | 7.8 | 13.9 | 0.00 | 0.00 | 0.00 | 18 | 1019.9 |
| 20260501234506 | 71 | 263 | 7.8 | 13.0 | 0.00 | 0.00 | 0.00 | 18 | 1019.8 |
| 20260501234006 | 71 | 250 | 7.8 | 13.0 | 0.00 | 0.00 | 0.00 | 19 | 1019.9 |
| 20260501233506 | 71 | 212 | 7.0 | 14.8 | 0.00 | 0.00 | 0.00 | 19 | 1019.9 |
| 20260501233007 | 71 | 238 | 7.8 | 15.6 | 0.00 | 0.00 | 0.00 | 20 | 1020.0 |
| 20260501232506 | 71 | 246 | 8.7 | 15.6 | 0.00 | 0.00 | 0.00 | 18 | 1020.0 |
| 20260501231507 | 71 | 248 | 5.2 | 13.0 | 0.00 | 0.00 | 0.00 | 20 | 1020.1 |
| 20260501231006 | 71 | 269 | 5.2 | 13.0 | 0.00 | 0.00 | 0.00 | 20 | 1020.2 |
| 20260501230006 | 72 | 271 | 5.2 | 10.4 | 0.00 | 0.00 | 0.00 | 19 | 1020.2 |
| 20260501225506 | 71 | 264 | 5.2 | 14.8 | 0.00 | 0.00 | 0.00 | 22 | 1020.3 |
| 20260501225006 | 71 | 268 | 7.8 | 14.8 | 0.00 | 0.00 | 0.00 | 19 | 1020.4 |
| 20260501224506 | 71 | 235 | 7.8 | 13.9 | 0.00 | 0.00 | 0.00 | 19 | 1020.4 |
| 20260501224007 | 71 | 266 | 5.2 | 13.0 | 0.00 | 0.00 | 0.00 | 19 | 1020.5 |
| 20260501223506 | 72 | 268 | 9.6 | 13.0 | 0.00 | 0.00 | 0.00 | 19 | 1020.6 |
| 20260501223006 | 72 | 229 | 4.3 | 8.7 | 0.00 | 0.00 | 0.00 | 22 | 1020.6 |
| 20260501222506 | 71 | 191 | 4.3 | 13.9 | 0.00 | 0.00 | 0.00 | 19 | 1020.7 |
| 20260501221507 | 72 | 257 | 4.3 | 13.0 | 0.00 | 0.00 | 0.00 | 19 | 1020.8 |
| 20260501221006 | 72 | 212 | 8.7 | 13.0 | 0.00 | 0.00 | 0.00 | 19 | 1020.9 |
| 20260501220506 | 72 | 234 | 5.2 | 14.8 | 0.00 | 0.00 | 0.00 | 20 | 1021.0 |
| 20260501220007 | 72 | 252 | 10.4 | 14.8 | 0.00 | 0.00 | 0.00 | 19 | 1021.1 |
| 20260501215505 | 71 | 189 | 4.3 | 10.4 | 0.00 | 0.00 | 0.00 | 21 | 1021.1 |
| 20260501215006 | 71 | 248 | 4.3 | 17.4 | 0.00 | 0.00 | 0.00 | 19 | 1021.3 |
| 20260501214506 | 71 | 230 | 10.4 | 17.4 | 0.00 | 0.00 | 0.00 | 18 | 1021.4 |
| 20260501214006 | 71 | 204 | 3.5 | 10.4 | 0.00 | 0.00 | 0.00 | 19 | 1021.5 |
| 20260501213506 | 71 | 227 | 6.1 | 17.4 | 0.00 | 0.00 | 0.00 | 19 | 1021.6 |
| 20260501213006 | 71 | 248 | 5.2 | 17.4 | 0.00 | 0.00 | 0.00 | 19 | 1021.7 |
| 20260501212506 | 72 | 234 | 9.6 | 17.4 | 0.00 | 0.00 | 0.00 | 18 | 1021.8 |
| 20260501212006 | 71 | 215 | 5.2 | 14.8 | 0.00 | 0.00 | 0.00 | 21 | 1021.8 |
| 20260501211506 | 70 | 231 | 5.2 | 12.2 | 0.00 | 0.00 | 0.00 | 19 | 1021.9 |
| 20260501211006 | 71 | 244 | 7.0 | 12.2 | 0.00 | 0.00 | 0.00 | 19 | 1022.0 |
| 20260501210506 | 71 | 231 | 7.8 | 12.2 | 0.00 | 0.00 | 0.00 | 21 | 1021.9 |
| 20260501210006 | 70 | 209 | 5.2 | 14.8 | 0.00 | 0.00 | 0.00 | 21 | 1022.1 |
| 20260501205506 | 71 | 240 | 5.2 | 14.8 | 0.00 | 0.00 | 0.00 | 20 | 1022.1 |
| 20260501205006 | 70 | 212 | 5.2 | 14.8 | 0.00 | 0.00 | 0.00 | 22 | 1022.1 |
| 20260501204506 | 69 | 215 | 1.7 | 10.4 | 0.00 | 0.00 | 0.00 | 23 | 1022.1 |
| 20260501204006 | 69 | 212 | 5.2 | 14.8 | 0.00 | 0.00 | 0.00 | 20 | 1022.3 |
| 20260501203506 | 70 | 255 | 7.8 | 14.8 | 0.00 | 0.00 | 0.00 | 21 | 1022.3 |
| 20260501203006 | 70 | 213 | 3.5 | 11.3 | 0.00 | 0.00 | 0.00 | 24 | 1022.4 |
| 20260501202506 | 68 | 211 | 5.2 | 11.3 | 0.00 | 0.00 | 0.00 | 22 | 1022.4 |
| 20260501202006 | 68 | 228 | 7.0 | 11.3 | 0.00 | 0.00 | 0.00 | 22 | 1022.5 |
| 20260501201007 | 69 | 227 | 7.8 | 12.2 | 0.00 | 0.00 | 0.00 | 22 | 1022.5 |
| 20260501200505 | 69 | 278 | 4.3 | 13.9 | 0.00 | 0.00 | 0.00 | 24 | 1022.6 |
| 20260501200006 | 69 | 236 | 8.7 | 13.9 | 0.00 | 0.00 | 0.00 | 22 | 1022.7 |
| 20260501195506 | 69 | 174 | 5.2 | 13.0 | 0.00 | 0.00 | 0.00 | 22 | 1022.6 |
| 20260501195006 | 69 | 224 | 7.8 | 13.0 | 0.00 | 0.00 | 0.00 | 22 | 1022.7 |